Time;durP1;ratioP1;P1;durP2;ratioP2;P2;SDS_P1;SDS_P2;PMS_P1;PMS_P2;Temp;Humidity;BMP_temperature;BMP_pressure;BME280_temperature;BME280_humidity;BME280_pressure;Samples;Min_cycle;Max_cycle;Signal;HPM_P1;HPM_P2
2022/04/02 00:00:41;;;;;;;15.40;11.10;;;;;;;11.84;74.21;99407.94;5029754;28;20036;-88
2022/04/02 00:03:07;;;;;;;16.83;11.25;;;;;;;11.81;74.36;99408.19;5013211;28;20033;-89
2022/04/02 00:05:32;;;;;;;16.77;11.35;;;;;;;11.75;74.32;99405.03;5029359;28;20568;-88
2022/04/02 00:07:58;;;;;;;15.25;11.55;;;;;;;11.87;74.28;99407.72;5045712;28;20029;-88
2022/04/02 00:10:23;;;;;;;15.73;11.65;;;;;;;11.68;74.16;99406.44;5013200;28;20120;-88
2022/04/02 00:12:49;;;;;;;15.07;11.10;;;;;;;11.76;73.92;99421.41;5029577;28;20402;-88
2022/04/02 00:15:14;;;;;;;14.13;11.30;;;;;;;11.74;75.05;99424.13;5046202;28;20109;-88
2022/04/02 00:17:40;;;;;;;14.95;11.48;;;;;;;11.65;74.74;99408.41;5029619;28;20029;-88
2022/04/02 00:20:06;;;;;;;14.55;11.25;;;;;;;11.76;74.43;99419.66;5029228;28;20109;-88
2022/04/02 00:22:32;;;;;;;15.93;11.45;;;;;;;11.70;74.44;99412.34;5012870;28;20038;-88
2022/04/02 00:24:57;;;;;;;16.45;11.65;;;;;;;11.78;74.36;99425.53;5029531;28;20025;-89
2022/04/02 00:27:22;;;;;;;14.98;11.25;;;;;;;11.69;74.51;99405.47;5015130;28;20557;-88
2022/04/02 00:29:49;;;;;;;15.43;11.25;;;;;;;11.74;74.67;99408.59;5033537;28;20029;-88
2022/04/02 00:32:14;;;;;;;16.17;11.57;;;;;;;11.75;74.72;99420.59;5033416;28;20083;-88
2022/04/02 00:34:40;;;;;;;15.30;11.43;;;;;;;11.80;74.84;99419.44;5033225;28;20061;-89
2022/04/02 00:37:06;;;;;;;14.05;11.65;;;;;;;11.64;74.58;99402.41;5033338;28;20033;-87
2022/04/02 00:39:37;;;;;;;16.30;12.32;;;;;;;11.60;75.12;99390.63;5034523;28;20053;-89
2022/04/02 00:42:03;;;;;;;15.23;11.32;;;;;;;11.62;75.40;99411.25;5050284;28;20146;-88
2022/04/02 00:44:29;;;;;;;16.33;11.68;;;;;;;11.67;75.78;99420.31;5016642;28;20029;-88
2022/04/02 00:46:54;;;;;;;14.45;11.02;;;;;;;11.73;75.37;99419.88;5034717;28;20029;-89
2022/04/02 00:49:20;;;;;;;13.63;11.43;;;;;;;11.64;75.49;99397.25;5032921;28;20061;-89
2022/04/02 00:51:46;;;;;;;15.57;11.40;;;;;;;11.76;75.16;99411.06;5033150;28;20088;-88
2022/04/02 00:54:13;;;;;;;16.52;11.70;;;;;;;11.71;75.48;99419.19;5033211;28;20479;-89
2022/04/02 00:56:40;;;;;;;17.52;11.82;;;;;;;11.69;75.53;99402.91;5033017;28;20026;-88
2022/04/02 00:59:06;;;;;;;16.77;13.10;;;;;;;11.78;75.50;99417.78;5016315;28;20099;-88
2022/04/02 01:01:31;;;;;;;19.60;14.23;;;;;;;11.76;75.53;99408.47;5016508;28;20033;-88
2022/04/02 01:03:58;;;;;;;25.42;16.40;;;;;;;11.84;75.24;99429.50;5032385;28;20063;-88
2022/04/02 01:06:24;;;;;;;19.65;14.75;;;;;;;11.81;75.21;99427.13;5032588;28;20031;-87
2022/04/02 01:08:49;;;;;;;17.60;14.52;;;;;;;11.86;75.33;99426.78;5016321;28;20029;-88
2022/04/02 01:11:15;;;;;;;21.33;16.30;;;;;;;11.84;75.18;99431.25;5032652;28;20029;-88
2022/04/02 01:13:40;;;;;;;22.25;17.33;;;;;;;11.72;74.87;99412.22;5032692;28;20559;-88
2022/04/02 01:16:06;;;;;;;18.25;14.20;;;;;;;11.81;74.72;99428.91;5033904;28;20040;-88
2022/04/02 01:18:31;;;;;;;16.15;13.50;;;;;;;11.83;74.29;99437.38;5032330;28;20026;-88
2022/04/02 01:20:58;;;;;;;12.77;9.63;;;;;;;11.76;73.26;99436.97;5032434;28;20503;-89
2022/04/02 01:23:29;;;;;;;8.35;5.45;;;;;;;11.73;69.52;99429.44;5016305;28;20047;-88
2022/04/02 01:25:56;;;;;;;8.10;5.38;;;;;;;11.80;70.49;99447.94;5000974;28;20030;-88
2022/04/02 01:28:22;;;;;;;7.55;4.18;;;;;;;11.74;68.97;99447.44;5016176;28;20033;-88
2022/04/02 01:30:48;;;;;;;4.28;2.88;;;;;;;11.62;68.27;99439.75;5016205;28;20033;-87
2022/04/02 01:33:13;;;;;;;4.13;2.30;;;;;;;11.88;66.26;99453.41;5031990;28;20065;-88
2022/04/02 01:35:39;;;;;;;4.22;2.20;;;;;;;11.95;65.52;99472.78;4999442;28;20029;-88
2022/04/02 01:38:04;;;;;;;4.10;2.22;;;;;;;11.93;66.42;99459.94;5015115;28;20052;-88
2022/04/02 01:40:45;;;;;;;4.22;1.77;;;;;;;12.18;63.63;99471.91;5015703;28;20083;-88
2022/04/02 01:43:11;;;;;;;3.33;1.73;;;;;;;12.18;63.77;99465.88;5015582;28;20099;-88
2022/04/02 01:45:36;;;;;;;3.35;1.92;;;;;;;12.27;63.45;99463.44;5015690;28;20029;-88
2022/04/02 01:48:02;;;;;;;2.53;1.58;;;;;;;12.30;62.06;99471.00;5031672;28;20069;-88
2022/04/02 01:50:27;;;;;;;2.30;1.20;;;;;;;12.37;61.51;99473.13;5015566;28;20022;-88
2022/04/02 01:52:53;;;;;;;2.85;1.42;;;;;;;12.39;62.54;99466.06;4999132;28;20037;-88
2022/04/02 01:55:18;;;;;;;3.28;2.40;;;;;;;12.49;60.39;99477.44;5031689;28;20029;-87
2022/04/02 01:57:44;;;;;;;2.58;1.25;;;;;;;12.51;61.43;99480.72;5031704;28;20035;-89
2022/04/02 02:00:10;;;;;;;2.88;1.60;;;;;;;12.61;58.69;99494.66;5015745;28;20037;-88
2022/04/02 02:02:37;;;;;;;4.55;1.27;;;;;;;12.61;60.53;99502.44;5015064;28;20415;-88
2022/04/02 02:05:02;;;;;;;2.60;1.10;;;;;;;12.57;60.39;99491.44;5015192;28;20029;-88
2022/04/02 02:07:28;;;;;;;3.67;1.65;;;;;;;12.66;59.89;99494.31;5015306;28;20402;-88
2022/04/02 02:09:57;;;;;;;2.75;0.95;;;;;;;12.77;57.76;99502.91;5031689;28;20029;-87
2022/04/02 02:12:23;;;;;;;3.90;1.50;;;;;;;12.83;59.27;99502.47;5015385;28;20112;-88
2022/04/02 02:14:48;;;;;;;2.72;1.58;;;;;;;12.85;57.75;99499.75;5015461;28;20022;-88
2022/04/02 02:17:15;;;;;;;3.40;1.88;;;;;;;12.81;58.99;99487.97;4998511;28;20029;-88
2022/04/02 02:19:41;;;;;;;2.85;1.60;;;;;;;12.88;58.96;99504.69;5032431;28;20495;-88
2022/04/02 02:22:06;;;;;;;3.53;1.60;;;;;;;12.70;58.78;99470.63;5014901;28;20048;-88
2022/04/02 02:24:34;;;;;;;3.63;1.10;;;;;;;12.78;59.05;99480.38;5031296;28;20028;-89
2022/04/02 02:27:01;;;;;;;4.55;1.70;;;;;;;12.81;58.03;99493.16;5031384;28;20392;-88
2022/04/02 02:29:26;;;;;;;2.58;1.30;;;;;;;12.89;59.05;99512.41;4998661;28;20022;-88
2022/04/02 02:31:52;;;;;;;1.50;0.90;;;;;;;12.76;57.96;99506.47;4998255;28;20025;-88
2022/04/02 02:37:04;;;;;;;2.10;1.13;;;;;;;12.85;58.74;99510.97;5031240;28;20167;-88
2022/04/02 02:39:30;;;;;;;3.47;1.23;;;;;;;12.83;57.69;99506.84;4998360;28;20453;-88
2022/04/02 02:41:55;;;;;;;3.47;1.40;;;;;;;12.65;57.93;99483.09;5014703;28;20029;-88
2022/04/02 02:44:21;;;;;;;4.28;1.60;;;;;;;12.78;57.94;99517.56;5031120;28;20037;-87
2022/04/02 02:46:46;;;;;;;3.20;1.58;;;;;;;12.75;57.89;99512.59;5014269;28;20376;-88
2022/04/02 02:49:12;;;;;;;2.42;1.00;;;;;;;12.67;58.96;99506.31;5014169;28;20056;-88
2022/04/02 02:51:40;;;;;;;4.00;2.15;;;;;;;12.71;58.59;99523.34;5013475;28;20029;-88
2022/04/02 02:54:06;;;;;;;4.00;1.70;;;;;;;12.49;58.18;99482.63;5030652;28;20538;-87
2022/04/02 02:56:31;;;;;;;5.95;3.42;;;;;;;12.65;57.32;99509.03;5032048;28;20116;-88
2022/04/02 02:58:57;;;;;;;3.10;1.50;;;;;;;12.73;57.96;99527.47;5030520;28;20061;-89
2022/04/02 03:01:22;;;;;;;2.85;1.35;;;;;;;12.62;56.91;99535.22;5013815;28;20519;-88
2022/04/02 03:03:48;;;;;;;3.17;1.50;;;;;;;12.67;58.21;99533.09;5014179;28;20037;-88
2022/04/02 03:06:13;;;;;;;3.22;1.25;;;;;;;12.60;58.03;99526.75;5030420;28;20037;-88
2022/04/02 03:08:39;;;;;;;3.47;1.50;;;;;;;12.63;58.04;99526.50;5030561;28;20483;-88
2022/04/02 03:11:04;;;;;;;2.80;1.40;;;;;;;12.50;56.85;99520.59;5013910;28;20033;-88
2022/04/02 03:13:30;;;;;;;4.70;1.60;;;;;;;12.58;58.49;99523.41;5014067;28;20033;-89
2022/04/02 03:15:56;;;;;;;3.00;1.23;;;;;;;12.59;57.77;99530.28;5030207;28;20029;-88
2022/04/02 03:18:21;;;;;;;2.10;1.30;;;;;;;12.59;57.11;99557.03;5030081;28;20514;-88
2022/04/02 03:20:47;;;;;;;2.10;1.20;;;;;;;12.66;56.93;99560.00;5013902;28;20037;-88
2022/04/02 03:23:13;;;;;;;3.88;1.63;;;;;;;12.61;58.03;99562.13;5030684;28;20029;-88
2022/04/02 03:25:38;;;;;;;2.97;1.20;;;;;;;12.57;57.75;99569.28;5013837;28;20025;-89
2022/04/02 03:28:04;;;;;;;2.67;1.20;;;;;;;12.56;57.62;99564.22;5030345;28;20076;-88
2022/04/02 03:30:30;;;;;;;3.05;1.30;;;;;;;12.57;57.31;99578.84;5029826;28;20083;-88
2022/04/02 03:32:56;;;;;;;3.92;1.90;;;;;;;12.58;58.04;99575.28;5013990;28;20442;-88
2022/04/02 03:35:21;;;;;;;2.42;1.60;;;;;;;12.55;59.13;99570.34;5030183;28;20029;-89
2022/04/02 03:37:48;;;;;;;2.42;1.70;;;;;;;12.53;58.72;99569.63;5013627;28;20033;-88
2022/04/02 03:40:20;;;;;;;2.70;1.80;;;;;;;12.47;58.95;99572.66;5030069;28;20060;-89
2022/04/02 03:42:46;;;;;;;3.53;2.07;;;;;;;12.38;59.36;99579.34;4997691;28;20017;-88
2022/04/02 03:45:13;;;;;;;4.35;1.80;;;;;;;12.32;59.85;99579.81;5013213;28;20030;-89
2022/04/02 03:47:38;;;;;;;5.07;1.98;;;;;;;12.12;60.55;99567.47;5029837;28;20033;-88
2022/04/02 03:50:04;;;;;;;3.28;1.70;;;;;;;12.26;60.08;99586.25;5029961;28;20029;-89
2022/04/02 03:52:30;;;;;;;1.85;1.33;;;;;;;12.28;59.71;99588.75;5013505;28;20025;-89
2022/04/02 03:54:55;;;;;;;2.92;1.42;;;;;;;12.36;60.06;99589.03;5013481;28;20061;-88
2022/04/02 03:57:21;;;;;;;1.80;0.90;;;;;;;12.31;59.54;99593.72;5013317;28;20026;-88
2022/04/02 03:59:46;;;;;;;2.28;1.10;;;;;;;12.10;60.29;99567.59;5012588;28;20056;-88
2022/04/02 04:02:12;;;;;;;2.20;0.90;;;;;;;12.23;59.64;99598.63;4996511;28;20498;-88
2022/04/02 04:04:38;;;;;;;1.60;0.88;;;;;;;12.03;59.90;99600.06;5013388;28;20026;-88
2022/04/02 04:07:04;;;;;;;2.05;1.10;;;;;;;12.13;60.58;99601.06;5013235;28;20112;-88
2022/04/02 04:09:29;;;;;;;1.90;1.20;;;;;;;12.09;59.25;99584.03;5013310;28;20095;-89
2022/04/02 04:11:56;;;;;;;2.92;1.20;;;;;;;11.98;59.32;99571.84;5013163;28;20052;-88
2022/04/02 04:14:24;;;;;;;3.05;1.70;;;;;;;11.99;59.81;99586.47;5012737;28;20034;-88
2022/04/02 04:16:49;;;;;;;1.98;1.48;;;;;;;12.09;59.05;99609.97;5029404;28;20044;-88
2022/04/02 04:19:16;;;;;;;3.90;1.80;;;;;;;11.96;58.61;99612.63;5013169;28;20041;-88
2022/04/02 04:21:43;;;;;;;3.28;1.70;;;;;;;11.97;59.37;99605.66;5030680;28;20029;-88
2022/04/02 04:24:08;;;;;;;2.85;1.85;;;;;;;11.78;58.96;99591.38;5013027;28;20034;-89
2022/04/02 04:26:34;;;;;;;4.00;1.50;;;;;;;11.91;58.12;99596.56;5012803;28;20021;-88
2022/04/02 04:28:59;;;;;;;2.78;1.75;;;;;;;11.86;57.98;99590.06;5013008;28;20025;-88
2022/04/02 04:31:25;;;;;;;3.80;1.52;;;;;;;11.99;57.84;99602.03;5012846;28;20033;-88
2022/04/02 04:33:50;;;;;;;3.00;1.55;;;;;;;11.99;58.18;99598.59;5012807;28;20557;-88
2022/04/02 04:36:16;;;;;;;5.15;1.80;;;;;;;12.02;57.23;99582.84;5012667;28;20025;-88
2022/04/02 04:38:48;;;;;;;5.53;1.70;;;;;;;12.07;56.37;99596.28;5030469;28;20037;-88
2022/04/02 04:41:14;;;;;;;3.83;1.50;;;;;;;12.11;56.63;99592.56;5012935;28;20048;-88
2022/04/02 04:43:41;;;;;;;3.75;1.83;;;;;;;12.05;56.85;99593.00;5012829;28;20479;-88
2022/04/02 04:46:07;;;;;;;2.63;1.65;;;;;;;12.15;56.72;99594.00;4996386;28;20048;-88
2022/04/02 04:48:32;;;;;;;4.43;1.85;;;;;;;12.19;56.18;99586.81;5012634;28;20033;-87
2022/04/02 04:50:58;;;;;;;5.68;2.40;;;;;;;12.15;55.82;99586.22;5013014;28;20399;-88
2022/04/02 04:53:23;;;;;;;3.10;2.00;;;;;;;12.30;55.82;99605.03;5012868;28;20025;-88
2022/04/02 04:55:49;;;;;;;4.35;2.13;;;;;;;12.29;55.17;99595.56;5028984;28;20033;-88
2022/04/02 04:58:14;;;;;;;4.20;2.05;;;;;;;12.40;55.15;99608.63;5012396;28;20056;-87
2022/04/02 05:00:41;;;;;;;4.65;2.17;;;;;;;12.29;55.92;99570.50;5012434;28;20034;-88
2022/04/02 05:03:08;;;;;;;5.25;2.33;;;;;;;12.51;54.74;99606.06;5029043;28;20388;-88
2022/04/02 05:05:34;;;;;;;4.57;2.45;;;;;;;12.60;55.57;99613.19;5013050;28;20036;-88
2022/04/02 05:08:00;;;;;;;6.63;2.90;;;;;;;12.67;54.98;99612.72;5012741;28;20029;-87
2022/04/02 05:10:26;;;;;;;12.38;4.60;;;;;;;12.63;55.22;99599.16;5028387;28;20022;-88
2022/04/02 05:12:51;;;;;;;7.88;4.75;;;;;;;12.73;54.99;99601.91;5012730;28;20491;-88
2022/04/02 05:15:17;;;;;;;6.95;4.28;;;;;;;12.90;55.34;99610.09;5016180;28;20033;-89
2022/04/02 05:17:42;;;;;;;6.40;3.20;;;;;;;12.95;55.31;99617.53;4999793;28;20491;-88
2022/04/02 05:20:11;;;;;;;6.65;3.42;;;;;;;12.98;55.63;99604.34;5015865;28;20087;-88
2022/04/02 05:22:37;;;;;;;6.68;4.00;;;;;;;12.95;54.76;99606.31;5032478;28;20110;-88
2022/04/02 05:25:03;;;;;;;6.65;3.70;;;;;;;13.03;56.54;99616.94;5015625;28;20036;-88
2022/04/02 05:27:28;;;;;;;6.90;4.40;;;;;;;13.02;55.07;99604.91;5032463;28;20028;-88
2022/04/02 05:29:54;;;;;;;6.28;3.40;;;;;;;13.08;55.15;99607.06;5015843;28;20030;-89
2022/04/02 05:32:20;;;;;;;6.32;4.13;;;;;;;13.16;55.37;99612.47;4999477;28;20554;-89
2022/04/02 05:34:45;;;;;;;20.23;12.43;;;;;;;13.23;53.85;99598.13;5015595;28;20040;-87
2022/04/02 05:37:11;;;;;;;14.13;9.48;;;;;;;13.28;54.12;99609.00;5015718;28;20021;-88
2022/04/02 05:39:36;;;;;;;16.00;11.90;;;;;;;13.29;54.67;99595.06;5015871;28;20025;-88
2022/04/02 05:42:05;;;;;;;11.48;7.90;;;;;;;13.39;53.78;99606.41;5033454;28;20060;-89
2022/04/02 05:44:31;;;;;;;6.68;3.90;;;;;;;13.40;52.27;99600.28;5000294;28;20422;-89
2022/04/02 05:46:56;;;;;;;7.25;3.58;;;;;;;13.57;51.38;99604.19;5015614;28;20037;-88
2022/04/02 05:49:22;;;;;;;4.50;3.10;;;;;;;13.67;50.36;99601.69;4998933;28;20095;-88
2022/04/02 05:51:48;;;;;;;6.07;3.78;;;;;;;13.65;49.54;99598.38;5015536;28;20068;-88
2022/04/02 05:54:14;;;;;;;5.82;2.50;;;;;;;13.81;50.51;99603.19;5015336;28;20034;-89
2022/04/02 05:56:39;;;;;;;5.50;2.00;;;;;;;13.88;49.72;99593.97;5015485;28;20474;-88
2022/04/02 05:59:05;;;;;;;8.05;3.20;;;;;;;13.96;49.76;99591.56;5014891;28;20053;-89
2022/04/02 06:01:31;;;;;;;4.53;2.08;;;;;;;14.05;49.22;99604.69;5015264;28;20483;-87
2022/04/02 06:03:57;;;;;;;4.63;2.55;;;;;;;14.20;49.42;99600.03;5015681;28;20035;-88
2022/04/02 06:06:23;;;;;;;5.88;2.20;;;;;;;14.26;47.59;99578.75;5015384;28;20033;-88
2022/04/02 06:08:48;;;;;;;4.05;2.03;;;;;;;14.18;47.61;99547.31;5014798;28;20482;-88
2022/04/02 06:11:14;;;;;;;3.13;1.85;;;;;;;14.56;46.88;99592.84;5031539;28;20038;-89
2022/04/02 06:13:39;;;;;;;4.05;1.67;;;;;;;14.63;45.89;99607.00;5015068;28;20406;-88
2022/04/02 06:16:06;;;;;;;3.33;1.40;;;;;;;14.69;46.12;99600.47;5015081;28;20069;-88
2022/04/02 06:18:31;;;;;;;3.40;1.20;;;;;;;14.72;45.11;99600.22;5015004;28;20071;-88
2022/04/02 06:20:57;;;;;;;2.40;1.30;;;;;;;14.81;45.66;99605.50;4998721;28;20112;-88
2022/04/02 06:23:25;;;;;;;4.70;1.88;;;;;;;14.91;44.78;99597.75;4998400;28;20029;-88
2022/04/02 06:25:51;;;;;;;2.20;1.20;;;;;;;14.99;44.92;99608.34;5015199;28;20041;-88
2022/04/02 06:28:17;;;;;;;2.03;1.20;;;;;;;15.00;44.74;99598.75;5014951;28;20029;-87
2022/04/02 06:30:42;;;;;;;4.93;1.38;;;;;;;15.13;44.90;99621.03;5031224;28;20033;-88
2022/04/02 06:33:08;;;;;;;4.32;1.48;;;;;;;15.19;44.09;99620.53;5014613;28;20491;-89
2022/04/02 06:35:33;;;;;;;4.78;1.20;;;;;;;15.20;43.76;99609.16;5030889;28;20087;-88
2022/04/02 06:37:59;;;;;;;4.40;1.52;;;;;;;15.31;43.10;99636.09;4998119;28;20479;-89
2022/04/02 06:40:25;;;;;;;2.28;1.08;;;;;;;15.26;42.86;99609.59;5014624;28;20483;-88
2022/04/02 06:42:51;;;;;;;3.78;1.70;;;;;;;15.48;43.39;99631.09;5031012;28;20104;-88
2022/04/02 06:45:17;;;;;;;4.03;2.42;;;;;;;15.44;42.72;99619.31;5014869;28;20022;-88
2022/04/02 06:47:42;;;;;;;2.72;1.20;;;;;;;15.44;43.48;99608.06;5014295;28;20025;-88
2022/04/02 06:50:09;;;;;;;2.78;1.25;;;;;;;15.68;43.75;99626.00;5014423;28;20087;-88
2022/04/02 06:52:35;;;;;;;2.90;1.20;;;;;;;15.62;41.84;99616.09;5030307;28;20029;-89
2022/04/02 06:55:00;;;;;;;3.20;1.33;;;;;;;15.85;41.68;99627.16;5014162;28;20112;-88
2022/04/02 06:57:26;;;;;;;7.55;2.70;;;;;;;15.90;41.78;99630.19;5014196;28;20580;-88
2022/04/02 06:59:52;;;;;;;3.83;1.48;;;;;;;16.00;41.58;99644.06;4997334;28;20049;-87
2022/04/02 07:02:17;;;;;;;4.13;2.53;;;;;;;16.08;41.89;99636.41;5013952;28;20025;-89
2022/04/02 07:04:43;;;;;;;5.50;3.00;;;;;;;16.19;41.73;99625.03;4997654;28;20029;-88
2022/04/02 07:07:09;;;;;;;3.33;1.33;;;;;;;16.15;41.03;99627.09;5013669;28;20034;-88
2022/04/02 07:09:35;;;;;;;3.15;1.50;;;;;;;16.23;40.81;99624.66;5014042;28;20055;-88
2022/04/02 07:12:00;;;;;;;2.80;1.52;;;;;;;16.35;40.08;99614.91;5030434;28;20094;-88
2022/04/02 07:14:26;;;;;;;2.03;1.23;;;;;;;16.30;40.09;99623.13;5013684;28;20044;-88
2022/04/02 07:16:51;;;;;;;3.40;1.10;;;;;;;16.25;39.52;99616.69;5013585;28;20018;-88
2022/04/02 07:19:20;;;;;;;3.58;1.25;;;;;;;16.35;40.09;99607.06;5013865;28;20037;-88
2022/04/02 07:21:46;;;;;;;3.00;1.17;;;;;;;16.53;39.98;99622.88;5013504;28;20021;-88
2022/04/02 07:24:12;;;;;;;2.47;1.30;;;;;;;16.59;40.63;99628.34;5013994;28;20033;-89
2022/04/02 07:26:38;;;;;;;4.28;2.05;;;;;;;16.79;40.32;99629.22;5013858;28;20022;-88
2022/04/02 07:29:03;;;;;;;3.10;1.05;;;;;;;16.69;39.15;99623.16;5013701;28;20075;-87
2022/04/02 07:31:29;;;;;;;3.20;1.70;;;;;;;16.90;39.90;99625.63;5013718;28;20455;-88
2022/04/02 07:33:55;;;;;;;2.60;1.20;;;;;;;16.79;38.42;99610.94;5030113;28;20414;-88
2022/04/02 07:36:47;;;;;;;3.85;1.50;;;;;;;17.08;39.19;99621.31;4996377;28;20017;-89
2022/04/02 07:39:32;;;;;;;;;;;;;;;17.14;38.94;99622.56;5031620;28;20055;-88
2022/04/02 07:42:23;;;;;;;2.85;1.25;;;;;;;17.14;37.70;99622.56;5030120;28;19913;-88
2022/04/02 07:44:58;;;;;;;2.72;0.82;;;;;;;17.02;38.20;99613.25;5031138;28;20453;-88
2022/04/02 07:47:24;;;;;;;3.03;1.60;;;;;;;17.21;38.46;99613.19;5029903;28;20347;-88
2022/04/02 07:49:54;;;;;;;2.92;1.42;;;;;;;17.27;37.67;99623.06;4996452;28;20120;-87
2022/04/02 07:52:20;;;;;;;2.25;1.02;;;;;;;17.38;37.54;99641.19;4996804;28;20035;-87
2022/04/02 07:54:45;;;;;;;1.90;1.20;;;;;;;17.54;38.13;99634.56;5029421;28;20057;-88
2022/04/02 07:57:11;;;;;;;4.18;1.40;;;;;;;17.33;38.23;99606.84;5013302;28;20033;-88
2022/04/02 07:59:42;;;;;;;3.78;1.60;;;;;;;17.80;37.89;99642.56;4996733;28;20056;-88
2022/04/02 08:02:36;;;;;;;5.88;1.90;;;;;;;17.70;37.35;99616.50;5013741;28;20048;-89
2022/04/02 08:04:59;;;;;;;3.55;1.40;;;;;;;18.07;36.35;99653.03;5029024;28;20033;-88
2022/04/02 08:07:27;;;;;;;2.85;1.70;;;;;;;17.81;36.31;99658.16;5013573;28;20025;-88
2022/04/02 08:09:52;;;;;;;3.63;1.70;;;;;;;17.70;36.07;99659.16;5013522;28;20025;-87
2022/04/02 08:12:18;;;;;;;2.63;1.20;;;;;;;17.67;36.46;99680.31;5013034;28;20083;-87
2022/04/02 08:14:43;;;;;;;2.53;1.10;;;;;;;17.70;36.23;99651.31;5012788;28;20025;-88
2022/04/02 08:17:09;;;;;;;2.38;1.40;;;;;;;17.80;36.28;99655.66;5012907;28;20033;-88
2022/04/02 08:19:34;;;;;;;3.28;1.15;;;;;;;17.96;35.96;99666.34;5012755;28;20033;-88
2022/04/02 08:22:00;;;;;;;2.92;1.30;;;;;;;18.10;36.51;99652.78;5013003;28;20507;-88
2022/04/02 08:24:25;;;;;;;2.78;1.40;;;;;;;18.01;36.04;99670.16;5012931;28;20041;-89
2022/04/02 08:27:02;;;;;;;3.55;1.60;;;;;;;17.60;36.02;99623.50;5012831;28;20037;-89
2022/04/02 08:29:33;;;;;;;3.33;1.10;;;;;;;17.90;35.16;99661.69;5012775;28;20026;-88
2022/04/02 08:32:04;;;;;;;5.10;1.10;;;;;;;18.00;34.34;99658.06;5030444;28;20028;-87
2022/04/02 08:34:57;;;;;;;3.30;1.50;;;;;;;18.12;35.01;99652.63;5030231;28;20415;-88
2022/04/02 08:37:31;;;;;;;;;;;;;;;18.17;35.95;99668.69;5029666;28;20503;-88
2022/04/02 08:40:34;;;;;;;4.90;1.08;;;;;;;17.88;35.31;99677.50;5030258;28;19959;-88
2022/04/02 08:43:47;;;;;;;2.28;1.30;;;;;;;17.83;35.31;99660.63;5029294;28;20046;-88
2022/04/02 08:46:31;;;;;;;3.15;1.60;;;;;;;17.81;36.33;99676.47;5008148;28;20050;-88
2022/04/02 08:48:58;;;;;;;3.88;1.83;;;;;;;17.53;36.95;99680.81;5033008;28;20049;-88
2022/04/02 08:51:45;;;;;;;4.18;1.35;;;;;;;17.34;35.89;99680.84;5016745;28;20041;-88
2022/04/02 08:54:24;;;;;;;5.63;1.45;;;;;;;17.16;36.42;99631.09;5000908;28;20025;-88
2022/04/02 08:57:26;;;;;;;2.20;1.20;;;;;;;17.59;36.46;99659.28;5017508;28;20034;-88
2022/04/02 09:00:12;;;;;;;2.78;1.45;;;;;;;17.91;34.62;99656.31;4987797;28;20053;-88
2022/04/02 09:02:53;;;;;;;5.70;1.48;;;;;;;17.75;34.99;99643.03;5015361;28;20087;-89
2022/04/02 09:05:45;;;;;;;2.80;1.40;;;;;;;17.75;34.88;99658.72;5032971;28;20064;-89
2022/04/02 09:08:30;;;;;;;2.92;1.30;;;;;;;17.40;35.24;99660.19;5033701;28;20025;-88
2022/04/02 09:10:58;;;;;;;2.55;1.65;;;;;;;17.31;36.04;99660.22;5032475;28;20410;-89
2022/04/02 09:14:01;;;;;;;2.35;1.50;;;;;;;17.12;36.29;99672.38;5033569;28;20454;-88
2022/04/02 09:16:46;;;;;;;2.63;1.40;;;;;;;16.98;36.73;99659.72;5033921;28;20495;-88
2022/04/02 09:19:36;;;;;;;4.55;1.50;;;;;;;16.72;37.96;99629.94;5018410;28;20045;-88
2022/04/02 09:22:04;;;;;;;2.85;1.40;;;;;;;16.90;37.28;99673.47;5018534;28;20022;-89
2022/04/02 09:24:56;;;;;;;2.95;2.10;;;;;;;16.77;37.75;99662.47;5015900;28;20072;-88
2022/04/02 09:28:06;;;;;;;1.98;1.38;;;;;;;16.84;37.66;99679.25;5032720;28;20025;-88
2022/04/02 09:30:53;;;;;;;4.13;1.70;;;;;;;16.85;37.94;99665.22;5015576;28;20503;-89
2022/04/02 09:33:30;;;;;;;2.40;1.42;;;;;;;17.00;37.61;99689.13;5031977;28;20034;-88
2022/04/02 09:36:29;;;;;;;2.70;1.23;;;;;;;17.06;37.45;99693.00;5032280;28;20040;-88
2022/04/02 09:39:05;;;;;;;2.03;1.10;;;;;;;16.88;37.84;99654.50;5032298;28;20040;-88
2022/04/02 09:41:56;;;;;;;2.25;1.05;;;;;;;17.10;36.49;99700.41;4999584;28;20430;-89
2022/04/02 09:44:40;;;;;;;3.95;1.40;;;;;;;17.25;37.47;99703.44;5031818;28;21022;-88
2022/04/02 09:47:17;;;;;;;2.88;1.20;;;;;;;17.34;37.14;99671.22;5031534;28;20098;-88
2022/04/02 09:50:09;;;;;;;3.10;1.15;;;;;;;17.56;36.85;99709.28;5016903;28;20036;-88
2022/04/02 09:52:46;;;;;;;2.50;1.10;;;;;;;17.66;36.21;99691.75;5031897;28;20025;-89
2022/04/02 09:55:15;;;;;;;1.00;0.77;;;;;;;17.65;36.08;99715.44;5016246;28;20037;-88
2022/04/02 09:57:43;;;;;;;2.08;1.05;;;;;;;17.74;35.83;99712.84;4999393;28;20068;-88
2022/04/02 10:00:10;;;;;;;4.10;1.40;;;;;;;17.80;36.51;99689.66;5032123;28;20076;-88
2022/04/02 10:03:08;;;;;;;11.02;7.25;;;;;;;18.25;36.08;99708.06;5015476;28;20021;-88
2022/04/02 10:06:12;;;;;;;3.92;1.48;;;;;;;18.34;34.16;99717.66;5017159;28;20029;-89
2022/04/02 10:08:37;;;;;;;2.40;0.90;;;;;;;18.25;34.47;99729.00;5032296;28;20041;-87
2022/04/02 10:11:03;;;;;;;3.60;1.23;;;;;;;18.18;34.51;99728.75;5031425;28;20168;-88
2022/04/02 10:13:30;;;;;;;2.42;0.82;;;;;;;17.75;33.93;99671.81;5015128;28;20083;-88
2022/04/02 10:15:56;;;;;;;1.25;0.80;;;;;;;17.68;33.97;99708.13;5015227;28;20031;-88
2022/04/02 10:18:22;;;;;;;1.30;0.70;;;;;;;17.85;34.49;99706.59;4998680;28;20112;-88
2022/04/02 10:20:47;;;;;;;2.53;1.17;;;;;;;17.86;34.96;99704.81;5015161;28;20034;-88
2022/04/02 10:23:22;;;;;;;3.35;1.10;;;;;;;17.75;34.64;99708.44;5014924;28;20079;-88
2022/04/02 10:26:07;;;;;;;2.65;1.30;;;;;;;17.60;34.02;99702.81;5031212;28;20522;-89
2022/04/02 10:28:33;;;;;;;1.42;0.80;;;;;;;17.73;33.77;99713.81;5032175;28;20030;-88
2022/04/02 10:31:00;;;;;;;2.13;1.10;;;;;;;17.67;34.56;99709.09;5014327;28;20510;-89
2022/04/02 10:33:28;;;;;;;2.97;1.20;;;;;;;17.66;34.70;99686.53;5015031;28;20025;-89
2022/04/02 10:35:55;;;;;;;1.20;0.75;;;;;;;17.64;33.55;99705.94;5031328;28;20079;-88
2022/04/02 10:38:35;;;;;;;2.40;1.35;;;;;;;17.61;33.24;99703.63;5014839;28;20029;-88
2022/04/02 10:41:09;;;;;;;2.90;1.05;;;;;;;17.29;34.11;99678.66;5032432;28;20064;-88
2022/04/02 10:44:04;;;;;;;2.88;1.10;;;;;;;17.50;34.39;99712.44;5015305;28;20190;-86
2022/04/02 10:46:31;;;;;;;2.58;1.50;;;;;;;17.49;34.29;99695.09;5014458;28;20053;-88
2022/04/02 10:49:03;;;;;;;2.65;1.40;;;;;;;17.68;34.70;99695.06;5031309;28;20064;-87
2022/04/02 10:51:30;;;;;;;1.83;1.00;;;;;;;17.75;34.94;99695.34;5014842;28;20907;-88
2022/04/02 10:54:00;;;;;;;3.25;1.30;;;;;;;17.81;34.24;99691.34;5014461;28;20025;-88
2022/04/02 10:56:34;;;;;;;2.58;1.58;;;;;;;17.91;34.24;99672.00;5030828;28;20036;-88
2022/04/02 10:59:00;;;;;;;2.33;1.40;;;;;;;17.86;34.36;99682.06;5014794;28;20128;-88
2022/04/02 11:01:26;;;;;;;2.42;1.42;;;;;;;17.89;34.52;99701.88;5014367;28;20068;-87
2022/04/02 11:03:55;;;;;;;2.85;1.35;;;;;;;17.83;34.42;99671.91;5014310;28;20104;-88
2022/04/02 11:06:46;;;;;;;3.65;1.60;;;;;;;18.34;33.27;99699.31;5014519;28;20045;-88
2022/04/02 11:09:30;;;;;;;2.55;1.30;;;;;;;18.40;32.29;99698.75;5030641;28;20037;-88
2022/04/02 11:12:04;;;;;;;3.20;1.25;;;;;;;18.26;31.91;99667.81;5029303;28;20025;-88
2022/04/02 11:14:35;;;;;;;3.60;1.60;;;;;;;18.36;31.66;99668.56;5013935;28;20033;-88
2022/04/02 11:17:01;;;;;;;2.67;1.30;;;;;;;18.69;32.29;99674.19;4998637;28;20021;-88
2022/04/02 11:22:15;;;;;;;6.40;3.35;;;;;;;19.09;31.02;99661.41;5030316;28;20036;-89
2022/04/02 11:25:10;;;;;;;5.38;3.05;;;;;;;19.54;29.71;99656.91;4997646;28;20033;-88
2022/04/02 11:27:38;;;;;;;2.97;1.13;;;;;;;19.76;27.78;99652.00;5030250;28;20483;-88
2022/04/02 11:30:06;;;;;;;3.55;1.30;;;;;;;20.03;27.91;99650.94;5030256;28;20506;-89
2022/04/02 11:32:43;;;;;;;4.65;1.95;;;;;;;20.13;27.20;99657.84;5013877;28;20052;-89
2022/04/02 11:35:21;;;;;;;3.70;1.95;;;;;;;19.88;27.16;99628.09;5014035;28;20498;-88
2022/04/02 11:38:03;;;;;;;6.18;1.52;;;;;;;20.53;26.69;99657.16;5013999;28;20029;-88
2022/04/02 11:40:28;;;;;;;2.83;0.80;;;;;;;20.67;26.44;99668.84;5029900;28;20029;-88
2022/04/02 11:42:55;;;;;;;6.00;1.10;;;;;;;20.44;26.34;99668.63;5013628;28;20022;-88
2022/04/02 11:45:20;;;;;;;1.27;0.80;;;;;;;20.51;25.46;99669.63;5029954;28;20032;-88
2022/04/02 11:47:48;;;;;;;2.55;1.02;;;;;;;20.29;27.06;99676.28;4997175;28;20409;-89